Time;durP1;ratioP1;P1;durP2;ratioP2;P2;SDS_P1;SDS_P2;PMS_P1;PMS_P2;Temp;Humidity;BMP_temperature;BMP_pressure;BME280_temperature;BME280_humidity;BME280_pressure;Samples;Min_cycle;Max_cycle;Signal;HPM_P1;HPM_P2
2023/04/19 00:02:27;;;;;;;;;;;;;;;12.65;56.51;100352.34;5590521;31;34360;-69
2023/04/19 00:05:31;;;;;;;;;;;;;;;12.66;56.02;100350.53;5590143;31;34763;-68
2023/04/19 00:08:34;;;;;;;;;;;;;;;12.59;56.15;100351.25;5589987;31;34232;-68
2023/04/19 00:11:36;;;;;;;;;;;;;;;12.60;55.38;100352.91;5590006;31;34252;-68
2023/04/19 00:14:39;;;;;;;;;;;;;;;12.55;55.90;100341.97;5590261;31;35035;-69
2023/04/19 00:17:41;;;;;;;;;;;;;;;12.55;55.69;100336.66;5590318;31;34031;-69
2023/04/19 00:20:44;;;;;;;;;;;;;;;12.46;56.66;100339.56;5589928;31;34248;-68
2023/04/19 00:23:47;;;;;;;;;;;;;;;12.40;56.69;100333.13;5589964;31;34216;-69
2023/04/19 00:26:49;;;;;;;;;;;;;;;12.28;56.49;100331.94;5589841;31;34326;-69
2023/04/19 00:29:52;;;;;;;;;;;;;;;12.20;57.38;100332.81;5590132;31;34271;-69
2023/04/19 00:32:54;;;;;;;;;;;;;;;12.17;57.17;100330.53;5589656;31;34249;-69
2023/04/19 00:35:59;;;;;;;;;;;;;;;12.09;57.62;100329.78;5590097;31;34102;-69
2023/04/19 00:39:02;;;;;;;;;;;;;;;11.96;57.64;100327.69;5589733;31;34239;-69
2023/04/19 00:42:05;;;;;;;;;;;;;;;11.82;58.77;100319.66;5589673;31;34211;-69
2023/04/19 00:45:07;;;;;;;;;;;;;;;11.77;59.52;100322.84;5589671;31;35104;-69
2023/04/19 00:48:12;;;;;;;;;;;;;;;11.66;59.60;100316.09;5589645;31;34753;-69
2023/04/19 00:51:14;;;;;;;;;;;;;;;11.55;59.94;100311.19;5589564;31;34248;-69
2023/04/19 00:54:18;;;;;;;;;;;;;;;11.40;60.77;100312.94;5589620;31;34106;-70
2023/04/19 00:57:23;;;;;;;;;;;;;;;11.28;61.67;100319.63;5589808;31;34315;-69
2023/04/19 01:00:26;;;;;;;;;;;;;;;11.14;62.08;100315.03;5589471;31;34808;-69
2023/04/19 01:03:29;;;;;;;;;;;;;;;11.06;62.33;100299.16;5589535;31;34327;-69
2023/04/19 01:06:33;;;;;;;;;;;;;;;10.97;62.08;100306.34;5589262;31;34398;-70
2023/04/19 01:09:39;;;;;;;;;;;;;;;10.92;63.45;100298.06;5589687;31;34221;-69
2023/04/19 01:12:42;;;;;;;;;;;;;;;10.97;63.07;100292.22;5589342;31;34370;-69
2023/04/19 01:15:45;;;;;;;;;;;;;;;10.99;62.96;100299.00;5575523;31;34037;-69
2023/04/19 01:18:48;;;;;;;;;;;;;;;10.87;63.00;100297.75;5589355;31;34873;-68
2023/04/19 01:21:51;;;;;;;;;;;;;;;10.87;62.68;100293.25;5589281;31;34862;-68
2023/04/19 01:24:54;;;;;;;;;;;;;;;10.96;64.83;100290.56;5589215;31;34240;-69
2023/04/19 01:27:57;;;;;;;;;;;;;;;11.05;63.55;100290.38;5589251;31;34921;-69
2023/04/19 01:31:00;;;;;;;;;;;;;;;11.22;61.60;100288.47;5588997;31;34203;-68
2023/04/19 01:34:02;;;;;;;;;;;;;;;11.27;61.08;100278.16;5588929;31;34848;-69
2023/04/19 01:37:05;;;;;;;;;;;;;;;11.31;61.89;100284.75;5575285;31;34149;-69
2023/04/19 01:40:08;;;;;;;;;;;;;;;11.28;60.73;100282.44;5588854;31;34956;-69
2023/04/19 01:43:12;;;;;;;;;;;;;;;11.44;59.60;100273.56;5588790;31;34882;-70
2023/04/19 01:46:14;;;;;;;;;;;;;;;11.49;59.80;100265.88;5588672;31;34977;-69
2023/04/19 01:49:17;;;;;;;;;;;;;;;11.42;60.92;100267.59;5588626;31;34154;-70
2023/04/19 01:52:19;;;;;;;;;;;;;;;11.45;61.78;100269.91;5588599;31;34135;-69
2023/04/19 01:55:22;;;;;;;;;;;;;;;11.52;61.34;100260.25;5588504;31;34834;-69
2023/04/19 01:58:27;;;;;;;;;;;;;;;11.46;63.02;100260.94;5588658;31;34324;-70
2023/04/19 02:01:29;;;;;;;;;;;;;;;11.63;61.94;100268.59;5588846;31;34076;-69
2023/04/19 02:04:33;;;;;;;;;;;;;;;11.54;62.63;100261.69;5588471;31;34484;-69
2023/04/19 02:07:35;;;;;;;;;;;;;;;11.51;62.88;100262.06;5588779;31;34248;-70
2023/04/19 02:10:38;;;;;;;;;;;;;;;11.71;63.25;100259.75;5588722;31;34351;-69
2023/04/19 02:13:41;;;;;;;;;;;;;;;11.67;63.13;100259.28;5588261;31;34577;-69
2023/04/19 02:16:43;;;;;;;;;;;;;;;11.55;64.10;100251.91;5588532;31;34981;-70
2023/04/19 02:19:47;;;;;;;;;;;;;;;11.68;64.13;100250.31;5591335;31;34144;-69
2023/04/19 02:22:52;;;;;;;;;;;;;;;11.54;65.77;100251.06;5590966;31;35617;-69
2023/04/19 02:25:54;;;;;;;;;;;;;;;11.39;66.39;100244.03;5591231;31;34041;-68
2023/04/19 02:28:57;;;;;;;;;;;;;;;11.28;67.52;100251.41;5590933;31;34381;-70
2023/04/19 02:32:00;;;;;;;;;;;;;;;11.31;69.23;100247.59;5591264;31;34246;-70
2023/04/19 02:35:03;;;;;;;;;;;;;;;11.31;69.46;100244.94;5591223;31;34277;-68
2023/04/19 02:38:05;;;;;;;;;;;;;;;11.23;70.98;100240.47;5577424;31;34215;-69
2023/04/19 02:41:08;;;;;;;;;;;;;;;11.24;72.42;100238.66;5591166;31;34181;-68
2023/04/19 02:44:13;;;;;;;;;;;;;;;11.23;74.39;100237.03;5590651;31;34234;-68
2023/04/19 02:47:17;;;;;;;;;;;;;;;11.23;77.05;100231.72;5590693;31;34380;-69
2023/04/19 02:50:19;;;;;;;;;;;;;;;11.09;79.08;100229.78;5590729;31;34947;-67
2023/04/19 02:53:22;;;;;;;;;;;;;;;11.05;80.79;100224.00;5590940;31;34245;-69
2023/04/19 02:56:25;;;;;;;;;;;;;;;11.14;82.79;100227.41;5590993;31;34748;-69
2023/04/19 02:59:28;;;;;;;;;;;;;;;10.90;86.33;100228.38;5590645;31;34131;-69
2023/04/19 03:02:31;;;;;;;;;;;;;;;10.78;87.46;100216.50;5590694;31;34360;-69
2023/04/19 03:05:33;;;;;;;;;;;;;;;10.70;90.38;100214.72;5590550;31;34129;-68
2023/04/19 03:08:36;;;;;;;;;;;;;;;10.61;93.11;100223.69;5590839;31;34852;-69
2023/04/19 03:11:39;;;;;;;;;;;;;;;10.61;97.01;100209.59;5590547;31;34780;-69
2023/04/19 03:14:42;;;;;;;;;;;;;;;10.59;100.00;100204.50;5590588;31;34862;-68
2023/04/19 03:17:45;;;;;;;;;;;;;;;10.57;100.00;100198.53;5590720;31;34204;-68
2023/04/19 03:20:48;;;;;;;;;;;;;;;10.53;100.00;100199.03;5590667;31;34456;-68
2023/04/19 03:23:51;;;;;;;;;;;;;;;10.45;100.00;100195.44;5590733;31;34120;-70
2023/04/19 03:26:54;;;;;;;;;;;;;;;10.40;100.00;100189.81;5590371;31;34711;-69
2023/04/19 03:29:57;;;;;;;;;;;;;;;10.30;100.00;100186.53;5590346;31;34375;-70
2023/04/19 03:32:59;;;;;;;;;;;;;;;10.21;100.00;100184.06;5590356;31;34316;-70
2023/04/19 03:36:02;;;;;;;;;;;;;;;10.22;100.00;100183.06;5590379;31;34127;-70
2023/04/19 03:39:05;;;;;;;;;;;;;;;10.11;100.00;100191.34;5590267;31;34374;-69
2023/04/19 03:42:09;;;;;;;;;;;;;;;9.99;100.00;100186.41;5590145;31;34759;-69
2023/04/19 03:45:12;;;;;;;;;;;;;;;9.96;100.00;100186.75;5590369;31;34295;-69
2023/04/19 03:48:15;;;;;;;;;;;;;;;9.87;100.00;100190.41;5576734;31;34502;-68
2023/04/19 03:51:18;;;;;;;;;;;;;;;9.90;100.00;100182.13;5590527;31;35614;-68
2023/04/19 03:54:21;;;;;;;;;;;;;;;9.87;100.00;100182.47;5590589;31;34174;-68
2023/04/19 03:57:24;;;;;;;;;;;;;;;9.89;100.00;100188.41;5590155;31;34315;-69
2023/04/19 04:00:27;;;;;;;;;;;;;;;9.83;100.00;100182.94;5590060;31;34284;-70
2023/04/19 04:03:31;;;;;;;;;;;;;;;9.71;100.00;100193.06;5590073;31;34738;-70
2023/04/19 04:06:37;;;;;;;;;;;;;;;9.68;100.00;100185.47;5590031;31;34227;-68
2023/04/19 04:09:39;;;;;;;;;;;;;;;9.72;100.00;100192.09;5590319;31;34133;-73
2023/04/19 04:12:42;;;;;;;;;;;;;;;9.84;100.00;100185.44;5589940;31;34315;-71
2023/04/19 04:15:45;;;;;;;;;;;;;;;9.89;100.00;100185.75;5589990;31;34310;-72
2023/04/19 04:18:48;;;;;;;;;;;;;;;10.01;100.00;100183.59;5589836;31;34460;-71
2023/04/19 04:21:50;;;;;;;;;;;;;;;9.96;100.00;100186.75;5590211;31;34140;-71
2023/04/19 04:24:57;;;;;;;;;;;;;;;9.90;100.00;100184.78;5590111;31;33955;-70
2023/04/19 04:28:01;;;;;;;;;;;;;;;9.90;100.00;100187.41;5589935;31;34120;-70
2023/04/19 04:31:04;;;;;;;;;;;;;;;9.92;100.00;100190.72;5575973;31;34276;-71
2023/04/19 04:34:08;;;;;;;;;;;;;;;10.02;100.00;100185.25;5589788;31;34703;-70
2023/04/19 04:37:12;;;;;;;;;;;;;;;10.02;100.00;100179.97;5590158;31;34319;-70
2023/04/19 04:40:15;;;;;;;;;;;;;;;10.00;100.00;100179.28;5589527;31;34711;-70
2023/04/19 04:43:19;;;;;;;;;;;;;;;10.07;100.00;100174.94;5589453;31;34404;-71
2023/04/19 04:46:30;;;;;;;;;;;;;;;10.19;99.52;100181.59;5589722;31;34394;-71
2023/04/19 04:49:32;;;;;;;;;;;;;;;10.29;97.43;100179.56;5589379;31;34139;-71
2023/04/19 04:52:35;;;;;;;;;;;;;;;10.40;94.39;100176.56;5589319;31;34139;-71
2023/04/19 04:55:38;;;;;;;;;;;;;;;10.48;92.34;100188.94;5589538;31;34342;-70
2023/04/19 04:58:41;;;;;;;;;;;;;;;10.52;91.42;100182.28;5589750;31;34233;-70
2023/04/19 05:01:43;;;;;;;;;;;;;;;10.55;90.27;100168.72;5589201;31;34173;-70
2023/04/19 05:04:46;;;;;;;;;;;;;;;10.56;90.79;100180.13;5589380;31;34697;-70
2023/04/19 05:07:49;;;;;;;;;;;;;;;10.56;90.21;100177.47;5589408;31;34357;-70
2023/04/19 05:10:52;;;;;;;;;;;;;;;10.65;91.13;100173.81;5575064;31;34095;-70
2023/04/19 05:13:55;;;;;;;;;;;;;;;10.59;89.82;100180.63;5575365;31;34854;-70
2023/04/19 05:16:58;;;;;;;;;;;;;;;10.65;90.21;100160.53;5588984;31;34212;-70
2023/04/19 05:20:00;;;;;;;;;;;;;;;10.61;88.38;100167.16;5589030;31;34661;-70
2023/04/19 05:23:04;;;;;;;;;;;;;;;10.70;87.84;100166.94;5575339;31;34398;-70
2023/04/19 05:26:13;;;;;;;;;;;;;;;10.79;87.00;100173.91;5588959;31;34741;-70
2023/04/19 05:29:16;;;;;;;;;;;;;;;10.93;85.34;100174.16;5588731;31;33589;-70
2023/04/19 05:32:19;;;;;;;;;;;;;;;11.16;83.60;100177.62;5575358;31;34924;-70
2023/04/19 05:35:22;;;;;;;;;;;;;;;11.28;82.30;100174.38;5588453;31;34735;-70
2023/04/19 05:38:25;;;;;;;;;;;;;;;11.40;80.54;100177.47;5588727;31;34356;-70
2023/04/19 05:41:30;;;;;;;;;;;;;;;11.63;79.10;100174.78;5588155;31;34201;-70
2023/04/19 05:44:32;;;;;;;;;;;;;;;11.73;78.94;100175.38;5588054;31;34225;-68
2023/04/19 05:47:35;;;;;;;;;;;;;;;11.90;76.98;100174.25;5588174;31;34861;-69
2023/04/19 05:50:39;;;;;;;;;;;;;;;12.11;75.23;100173.50;5588016;31;34602;-70
2023/04/19 05:53:45;;;;;;;;;;;;;;;11.98;76.40;100174.16;5589833;31;34705;-70
2023/04/19 05:56:47;;;;;;;;;;;;;;;12.10;75.24;100172.69;5590589;31;34066;-70
2023/04/19 05:59:50;;;;;;;;;;;;;;;12.24;75.09;100165.75;5590701;31;34221;-70
2023/04/19 06:02:53;;;;;;;;;;;;;;;12.42;73.12;100174.16;5590572;31;34954;-70
2023/04/19 06:05:56;;;;;;;;;;;;;;;12.55;71.00;100173.50;5590922;31;34178;-70
2023/04/19 06:08:59;;;;;;;;;;;;;;;12.72;69.44;100166.16;5590867;31;34833;-70
2023/04/19 06:12:02;;;;;;;;;;;;;;;12.90;68.81;100171.88;5590974;31;34204;-70
2023/04/19 06:15:05;;;;;;;;;;;;;;;13.08;68.72;100167.78;5590739;31;34310;-70
2023/04/19 06:18:09;;;;;;;;;;;;;;;13.12;67.95;100162.13;5590796;31;34838;-71
2023/04/19 06:21:21;;;;;;;;;;;;;;;13.30;68.95;100162.50;5590404;31;34280;-71
2023/04/19 06:24:23;;;;;;;;;;;;;;;13.59;67.58;100161.53;5576938;31;34699;-70
2023/04/19 06:27:26;;;;;;;;;;;;;;;13.66;68.21;100165.87;5577146;31;34171;-71
2023/04/19 06:30:29;;;;;;;;;;;;;;;13.65;67.67;100156.22;5590631;31;34813;-70
2023/04/19 06:33:31;;;;;;;;;;;;;;;13.98;68.57;100153.84;5590535;31;34196;-71
2023/04/19 06:36:34;;;;;;;;;;;;;;;14.12;64.74;100149.41;5590610;31;34861;-71
2023/04/19 06:39:36;;;;;;;;;;;;;;;14.31;63.58;100149.50;5590393;31;34260;-71
2023/04/19 06:42:39;;;;;;;;;;;;;;;14.79;60.18;100144.19;5590055;31;34071;-71
2023/04/19 06:45:42;;;;;;;;;;;;;;;14.91;59.24;100147.91;5590346;31;34550;-72
2023/04/19 06:48:44;;;;;;;;;;;;;;;15.03;58.71;100148.16;5590394;31;34276;-71
2023/04/19 06:51:47;;;;;;;;;;;;;;;15.18;58.10;100146.13;5590479;31;34617;-70
2023/04/19 06:54:50;;;;;;;;;;;;;;;15.55;55.13;100150.94;5590628;31;34862;-71
2023/04/19 06:57:52;;;;;;;;;;;;;;;15.53;55.72;100144.97;5590475;31;34228;-69
2023/04/19 07:00:55;;;;;;;;;;;;;;;15.51;53.62;100148.87;5590530;31;34225;-71
2023/04/19 07:03:58;;;;;;;;;;;;;;;15.99;52.59;100141.44;5589794;31;34723;-71
2023/04/19 07:07:01;;;;;;;;;;;;;;;17.04;50.43;100143.72;5590115;31;34692;-69
2023/04/19 07:10:03;;;;;;;;;;;;;;;17.49;46.79;100135.59;5589949;31;34871;-70
2023/04/19 07:13:06;;;;;;;;;;;;;;;16.58;47.81;100133.25;5590269;31;34307;-70
2023/04/19 07:16:08;;;;;;;;;;;;;;;17.57;44.42;100132.66;5590790;31;34109;-70
2023/04/19 07:19:11;;;;;;;;;;;;;;;17.73;44.13;100140.97;5590332;31;34941;-70
2023/04/19 07:22:14;;;;;;;;;;;;;;;17.99;43.65;100134.56;5576206;31;34580;-69
2023/04/19 07:25:17;;;;;;;;;;;;;;;18.57;42.32;100126.06;5590413;31;34773;-69
2023/04/19 07:28:20;;;;;;;;;;;;;;;18.57;43.26;100120.69;5590103;31;34198;-70
2023/04/19 07:31:24;;;;;;;;;;;;;;;19.18;41.21;100125.03;5590421;31;34723;-70
2023/04/19 07:34:26;;;;;;;;;;;;;;;19.26;39.79;100130.91;5590249;31;34705;-70
2023/04/19 07:37:29;;;;;;;;;;;;;;;20.44;38.34;100121.81;5590065;31;34121;-71
2023/04/19 07:40:31;;;;;;;;;;;;;;;19.25;39.79;100115.81;5590207;31;32608;-69
2023/04/19 07:43:34;;;;;;;;;;;;;;;19.89;38.40;100124.94;5589831;31;34800;-70
2023/04/19 07:46:36;;;;;;;;;;;;;;;19.78;38.75;100120.34;5589842;31;34279;-70
2023/04/19 07:49:43;;;;;;;;;;;;;;;20.70;38.10;100129.38;5589910;31;34820;-70
2023/04/19 07:52:45;;;;;;;;;;;;;;;19.76;39.04;100120.56;5589037;31;34446;-71
2023/04/19 07:55:49;;;;;;;;;;;;;;;19.77;36.75;100126.78;5590287;31;34771;-71
2023/04/19 07:58:52;;;;;;;;;;;;;;;19.79;38.95;100120.12;5589893;31;34871;-71
2023/04/19 08:02:09;;;;;;;;;;;;;;;20.32;38.45;100121.84;5589808;31;34240;-72
2023/04/19 08:05:12;;;;;;;;;;;;;;;21.92;36.43;100122.31;5576142;31;34846;-70
2023/04/19 08:08:15;;;;;;;;;;;;;;;21.17;36.86;100117.34;5589785;31;34538;-71
2023/04/19 08:11:18;;;;;;;;;;;;;;;21.30;36.72;100123.50;5589576;31;34415;-70
2023/04/19 08:14:20;;;;;;;;;;;;;;;18.38;40.18;100121.72;5589018;31;34126;-68
2023/04/19 08:17:39;;;;;;;;;;;;;;;19.66;37.42;100122.19;5589739;31;34832;-70
2023/04/19 08:20:45;;;;;;;;;;;;;;;20.16;35.43;100120.69;5589798;31;34218;-69
2023/04/19 08:23:48;;;;;;;;;;;;;;;20.63;36.35;100120.59;5589848;31;35104;-70
2023/04/19 08:26:53;;;;;;;;;;;;;;;20.50;35.66;100116.31;5589695;31;34284;-70
2023/04/19 08:29:56;;;;;;;;;;;;;;;22.17;32.94;100118.37;5589660;31;34207;-71
2023/04/19 08:32:58;;;;;;;;;;;;;;;21.66;33.26;100114.91;5589690;31;34320;-71
2023/04/19 08:36:01;;;;;;;;;;;;;;;20.93;34.22;100109.56;5575948;31;34315;-70
2023/04/19 08:39:03;;;;;;;;;;;;;;;19.91;34.71;100106.66;5589912;31;34804;-70
2023/04/19 08:42:26;;;;;;;;;;;;;;;19.90;33.70;100107.69;5589731;31;34149;-71
2023/04/19 08:45:38;;;;;;;;;;;;;;;19.58;33.92;100098.34;5589405;31;34790;-71
2023/04/19 08:48:42;;;;;;;;;;;;;;;19.23;35.74;100100.94;5589420;31;34274;-70
2023/04/19 08:51:46;;;;;;;;;;;;;;;19.18;35.78;100093.56;5589675;31;34778;-71
2023/04/19 08:54:49;;;;;;;;;;;;;;;18.11;38.51;100088.97;5589084;31;35103;-70
2023/04/19 08:57:51;;;;;;;;;;;;;;;18.67;37.54;100086.06;5588949;31;34109;-71
2023/04/19 09:00:55;;;;;;;;;;;;;;;19.38;36.36;100088.69;5589129;31;34328;-71
2023/04/19 09:03:57;;;;;;;;;;;;;;;19.93;34.73;100089.22;5575314;31;34676;-71
2023/04/19 09:07:25;;;;;;;;;;;;;;;18.50;37.92;100085.00;5589164;31;34062;-69
2023/04/19 09:10:28;;;;;;;;;;;;;;;17.90;40.38;100084.06;5575286;31;34957;-69
2023/04/19 09:13:31;;;;;;;;;;;;;;;17.65;40.78;100079.56;5589021;31;34726;-71
2023/04/19 09:16:34;;;;;;;;;;;;;;;18.53;40.84;100081.88;5588810;31;34325;-70
2023/04/19 09:19:55;;;;;;;;;;;;;;;18.98;39.15;100085.81;5588942;31;34742;-70
2023/04/19 09:23:05;;;;;;;;;;;;;;;19.37;39.50;100084.37;5588921;31;34952;-67
2023/04/19 09:26:08;;;;;;;;;;;;;;;19.40;39.82;100085.78;5588904;31;35086;-69
2023/04/19 09:29:25;;;;;;;;;;;;;;;19.14;40.44;100073.56;5588504;31;34076;-70
2023/04/19 09:32:43;;;;;;;;;;;;;;;22.15;36.87;100071.88;5588916;31;34093;-70
2023/04/19 09:35:48;;;;;;;;;;;;;;;22.61;34.52;100075.94;5589099;31;34213;-69
2023/04/19 09:38:51;;;;;;;;;;;;;;;22.51;34.86;100072.03;5588646;31;34014;-70
2023/04/19 09:41:53;;;;;;;;;;;;;;;23.03;34.05;100066.12;5576162;31;34169;-72
2023/04/19 09:44:57;;;;;;;;;;;;;;;23.44;33.68;100072.66;5576609;31;35513;-71
2023/04/19 09:48:03;;;;;;;;;;;;;;;22.37;35.83;100070.78;5588713;31;34320;-70
2023/04/19 09:51:07;;;;;;;;;;;;;;;22.41;34.94;100061.09;5588351;31;34782;-69
2023/04/19 09:54:16;;;;;;;;;;;;;;;22.75;34.44;100060.97;5589941;31;34762;-67
2023/04/19 09:57:19;;;;;;;;;;;;;;;22.54;34.82;100059.91;5589915;31;34674;-70
2023/04/19 10:00:22;;;;;;;;;;;;;;;20.79;37.50;100060.53;5588914;31;34760;-70
2023/04/19 10:03:27;;;;;;;;;;;;;;;19.54;38.99;100057.63;5588423;31;34183;-69
2023/04/19 10:06:31;;;;;;;;;;;;;;;19.47;39.83;100055.03;5589799;31;34104;-69
2023/04/19 10:09:58;;;;;;;;;;;;;;;18.15;41.70;100047.25;5587068;31;34971;-70
2023/04/19 10:13:28;;;;;;;;;;;;;;;19.10;40.12;100042.81;5588211;31;34350;-71
2023/04/19 10:16:37;;;;;;;;;;;;;;;18.52;41.89;100043.44;5562999;31;34143;-70
2023/04/19 10:19:40;;;;;;;;;;;;;;;18.51;43.01;100043.66;5588143;31;34663;-68
2023/04/19 10:22:43;;;;;;;;;;;;;;;17.60;45.46;100044.53;5588245;31;34260;-71
2023/04/19 10:25:46;;;;;;;;;;;;;;;17.44;46.48;100039.69;5587751;31;34822;-70
2023/04/19 10:28:49;;;;;;;;;;;;;;;17.19;47.24;100036.19;5587579;31;34352;-70
2023/04/19 10:31:52;;;;;;;;;;;;;;;17.25;48.67;100036.16;5587754;31;34728;-69
2023/04/19 10:35:00;;;;;;;;;;;;;;;17.01;49.58;100042.31;5587603;31;34062;-69
2023/04/19 10:38:10;;;;;;;;;;;;;;;17.09;49.09;100043.94;5588170;31;34915;-70
2023/04/19 10:41:13;;;;;;;;;;;;;;;16.80;50.72;100048.03;5590498;31;34349;-71
2023/04/19 10:44:18;;;;;;;;;;;;;;;16.55;49.91;100039.94;5590225;31;34728;-69
2023/04/19 10:47:40;;;;;;;;;;;;;;;17.71;47.29;100030.41;5590789;31;34175;-70
2023/04/19 10:51:02;;;;;;;;;;;;;;;17.64;47.12;100034.16;5590574;31;34203;-70
2023/04/19 10:54:06;;;;;;;;;;;;;;;17.69;45.29;100035.16;5590541;31;34959;-70
2023/04/19 10:57:10;;;;;;;;;;;;;;;17.11;46.62;100025.75;5590474;31;34042;-70
2023/04/19 11:00:17;;;;;;;;;;;;;;;17.82;45.78;100026.13;5590247;31;35093;-71
2023/04/19 11:03:40;;;;;;;;;;;;;;;20.60;39.87;100034.81;5576876;31;34333;-70
2023/04/19 11:06:50;;;;;;;;;;;;;;;24.41;34.19;100025.28;5576616;31;34873;-70
2023/04/19 11:09:52;;;;;;;;;;;;;;;27.22;28.13;100030.25;5590519;31;34274;-69
2023/04/19 11:12:55;;;;;;;;;;;;;;;25.56;31.02;100034.63;5593234;31;34311;-70
2023/04/19 11:15:58;;;;;;;;;;;;;;;24.96;30.16;100033.56;5590247;31;34133;-71
2023/04/19 11:19:00;;;;;;;;;;;;;;;22.71;32.78;100019.25;5590091;31;34409;-70
2023/04/19 11:22:03;;;;;;;;;;;;;;;20.30;37.16;100021.56;5576406;31;34801;-69
2023/04/19 11:25:07;;;;;;;;;;;;;;;22.96;33.86;100016.81;5590221;31;34781;-69
2023/04/19 11:28:09;;;;;;;;;;;;;;;26.11;28.57;100016.50;5590191;31;32499;-70
2023/04/19 11:31:13;;;;;;;;;;;;;;;27.47;26.31;100018.31;5589679;31;34918;-71
2023/04/19 11:34:15;;;;;;;;;;;;;;;27.33;26.18;100027.44;5589877;31;34883;-70
2023/04/19 11:37:18;;;;;;;;;;;;;;;24.32;29.89;100024.16;5589767;31;34102;-70
2023/04/19 11:40:22;;;;;;;;;;;;;;;23.56;31.71;100021.06;5590188;31;35005;-69
2023/04/19 11:43:31;;;;;;;;;;;;;;;21.31;38.19;100017.19;5589916;31;34844;-69
2023/04/19 11:46:33;;;;;;;;;;;;;;;20.12;41.32;100022.56;5589958;31;34379;-69
2023/04/19 11:49:36;;;;;;;;;;;;;;;18.71;44.21;100016.56;5588905;31;34257;-68
2023/04/19 11:52:38;;;;;;;;;;;;;;;17.73;47.10;100006.81;5590028;31;34339;-69
2023/04/19 11:55:45;;;;;;;;;;;;;;;16.93;48.63;100016.63;5576175;31;34177;-69
2023/04/19 11:58:47;;;;;;;;;;;;;;;16.89;48.54;100011.94;5590046;31;34087;-69
2023/04/19 12:01:50;;;;;;;;;;;;;;;16.88;48.59;100013.78;5589871;31;33513;-69
2023/04/19 12:04:53;;;;;;;;;;;;;;;16.58;49.59;100012.75;5590327;31;34868;-69
2023/04/19 12:07:56;;;;;;;;;;;;;;;16.69;49.62;100006.69;5589956;31;34792;-70
2023/04/19 12:11:00;;;;;;;;;;;;;;;16.85;50.34;100010.69;5589840;31;34315;-70
2023/04/19 12:14:08;;;;;;;;;;;;;;;16.44;53.46;99997.75;5589848;31;34337;-69
2023/04/19 12:17:13;;;;;;;;;;;;;;;16.56;54.39;99998.69;5576177;31;34778;-70
2023/04/19 12:20:27;;;;;;;;;;;;;;;16.71;54.02;99995.75;5589777;31;34143;-70
2023/04/19 12:23:30;;;;;;;;;;;;;;;17.02;53.39;99990.38;5589991;31;34783;-70
2023/04/19 12:26:32;;;;;;;;;;;;;;;16.80;54.58;99986.41;5589830;31;34292;-69
2023/04/19 12:29:35;;;;;;;;;;;;;;;16.90;55.74;99995.59;5589679;31;34247;-69
2023/04/19 12:32:37;;;;;;;;;;;;;;;16.93;56.00;99995.19;5589548;31;34386;-70
2023/04/19 12:35:41;;;;;;;;;;;;;;;16.94;55.56;99993.34;5590089;31;34426;-70
2023/04/19 12:38:44;;;;;;;;;;;;;;;16.81;57.08;100004.13;5589778;31;34863;-70
2023/04/19 12:41:47;;;;;;;;;;;;;;;16.74;57.10;100001.53;5589292;31;34645;-71
2023/04/19 12:44:49;;;;;;;;;;;;;;;17.13;56.19;99999.56;5575529;31;34227;-70
2023/04/19 12:47:52;;;;;;;;;;;;;;;17.01;57.52;100003.97;5589601;31;34200;-69
2023/04/19 12:50:55;;;;;;;;;;;;;;;17.07;53.78;100000.44;5589292;31;34879;-71
2023/04/19 12:53:58;;;;;;;;;;;;;;;16.68;52.99;100007.72;5589206;31;33931;-68
2023/04/19 12:57:01;;;;;;;;;;;;;;;16.99;54.23;99998.88;5575773;31;34184;-70
2023/04/19 13:00:06;;;;;;;;;;;;;;;17.38;52.09;100000.34;5589329;31;34764;-68
2023/04/19 13:03:08;;;;;;;;;;;;;;;17.52;52.86;99988.47;5588585;31;35094;-69
2023/04/19 13:06:14;;;;;;;;;;;;;;;17.43;53.71;99988.97;5589317;31;34230;-70
2023/04/19 13:09:17;;;;;;;;;;;;;;;17.56;51.73;99992.34;5575322;31;34809;-69
2023/04/19 13:12:20;;;;;;;;;;;;;;;17.59;52.33;99989.22;5575223;31;34945;-69
2023/04/19 13:15:22;;;;;;;;;;;;;;;17.72;53.37;99990.94;5588754;31;34864;-70
2023/04/19 13:18:25;;;;;;;;;;;;;;;17.77;51.91;99985.72;5588869;31;34158;-70
2023/04/19 13:21:28;;;;;;;;;;;;;;;17.41;52.67;99988.38;5588702;31;34965;-70
2023/04/19 13:24:31;;;;;;;;;;;;;;;17.76;51.65;99984.94;5588618;31;34811;-69
2023/04/19 13:27:33;;;;;;;;;;;;;;;17.69;50.98;99991.41;5574774;31;34202;-69
2023/04/19 13:30:36;;;;;;;;;;;;;;;17.19;52.25;99985.25;5588871;31;34347;-70
2023/04/19 13:33:39;;;;;;;;;;;;;;;17.20;52.62;99990.41;5588893;31;34419;-69
2023/04/19 13:36:41;;;;;;;;;;;;;;;17.30;52.34;99981.88;5588635;31;34530;-69
2023/04/19 13:39:44;;;;;;;;;;;;;;;17.59;50.93;99983.03;5588836;31;34150;-68
2023/04/19 13:42:47;;;;;;;;;;;;;;;17.94;51.64;99988.63;5588484;31;34190;-71
2023/04/19 13:45:49;;;;;;;;;;;;;;;18.22;50.75;99981.66;5588295;31;34054;-70
2023/04/19 13:48:54;;;;;;;;;;;;;;;18.38;52.22;99979.38;5588846;31;34509;-69
2023/04/19 13:51:56;;;;;;;;;;;;;;;17.99;56.56;99975.38;5587948;31;34760;-69
2023/04/19 13:54:59;;;;;;;;;;;;;;;18.23;56.31;99977.94;5588224;31;34202;-70
2023/04/19 13:58:01;;;;;;;;;;;;;;;18.12;58.82;99976.00;5588144;31;34085;-69
2023/04/19 14:01:04;;;;;;;;;;;;;;;17.59;59.06;99972.31;5588004;31;34230;-72
2023/04/19 14:04:07;;;;;;;;;;;;;;;17.23;60.58;99968.50;5587879;31;34503;-70
2023/04/19 14:07:09;;;;;;;;;;;;;;;17.55;60.87;99973.78;5587998;31;34126;-70
2023/04/19 14:10:12;;;;;;;;;;;;;;;17.86;60.10;99973.66;5588071;31;34652;-69
2023/04/19 14:13:15;;;;;;;;;;;;;;;17.46;61.14;99969.75;5588609;31;34282;-69
2023/04/19 14:16:17;;;;;;;;;;;;;;;17.32;61.61;99969.91;5590593;31;34156;-70
2023/04/19 14:19:20;;;;;;;;;;;;;;;16.97;63.86;99974.12;5576511;31;34809;-70
2023/04/19 14:22:23;;;;;;;;;;;;;;;17.34;61.40;99970.47;5590395;31;34221;-74
2023/04/19 14:25:26;;;;;;;;;;;;;;;18.63;56.88;99980.09;5590115;31;34170;-70
2023/04/19 14:28:28;;;;;;;;;;;;;;;19.91;51.88;99989.00;5589668;31;34776;-70
2023/04/19 14:31:31;;;;;;;;;;;;;;;20.35;49.95;99982.09;5590565;31;34447;-70
2023/04/19 14:34:33;;;;;;;;;;;;;;;18.27;55.24;99972.09;5589971;31;34312;-70
2023/04/19 14:37:36;;;;;;;;;;;;;;;17.66;59.24;99978.44;5590257;31;35236;-69
2023/04/19 14:40:39;;;;;;;;;;;;;;;17.38;59.72;99979.72;5590352;31;34054;-68
2023/04/19 14:43:41;;;;;;;;;;;;;;;17.57;58.81;99977.06;5585821;31;125801;-70
2023/04/19 14:46:44;;;;;;;;;;;;;;;17.52;60.42;99982.28;5589940;31;34588;-69
2023/04/19 14:49:47;;;;;;;;;;;;;;;17.24;61.11;99977.38;5589611;31;34382;-69
2023/04/19 14:52:50;;;;;;;;;;;;;;;17.51;60.04;99975.28;5590310;31;34297;-70
2023/04/19 14:55:52;;;;;;;;;;;;;;;17.59;58.82;99986.56;5589606;31;34887;-69
2023/04/19 14:58:55;;;;;;;;;;;;;;;17.19;61.62;99987.94;5589869;31;34254;-70
2023/04/19 15:01:58;;;;;;;;;;;;;;;17.09;61.54;99985.75;5590614;31;34052;-70
2023/04/19 15:05:01;;;;;;;;;;;;;;;17.33;60.68;99986.81;5576158;31;34356;-68
2023/04/19 15:08:03;;;;;;;;;;;;;;;17.13;61.24;99996.88;5590213;31;32336;-70
2023/04/19 15:11:06;;;;;;;;;;;;;;;17.34;59.91;99991.94;5589981;31;34789;-72
2023/04/19 15:14:09;;;;;;;;;;;;;;;16.99;60.53;99998.88;5589618;31;34713;-72
2023/04/19 15:17:11;;;;;;;;;;;;;;;16.73;61.82;100004.41;5590051;31;34319;-71
2023/04/19 15:20:15;;;;;;;;;;;;;;;16.50;62.19;100016.47;5590005;31;34836;-70
2023/04/19 15:23:23;;;;;;;;;;;;;;;16.28;63.48;100011.62;5576216;31;34335;-68
2023/04/19 15:26:25;;;;;;;;;;;;;;;16.22;63.85;100012.47;5589590;31;34205;-69
2023/04/19 15:29:28;;;;;;;;;;;;;;;16.29;64.38;100013.28;5590080;31;34278;-69
2023/04/19 15:32:33;;;;;;;;;;;;;;;15.94;66.22;100007.47;5575979;31;34174;-69
2023/04/19 15:35:35;;;;;;;;;;;;;;;15.89;66.35;100018.78;5589883;31;34416;-70
2023/04/19 15:38:38;;;;;;;;;;;;;;;15.82;66.44;100011.84;5576103;31;34879;-71
2023/04/19 15:41:43;;;;;;;;;;;;;;;15.59;68.33;100010.44;5576468;31;34212;-70
2023/04/19 15:44:45;;;;;;;;;;;;;;;15.61;68.26;100013.75;5589936;31;34188;-69
2023/04/19 15:47:48;;;;;;;;;;;;;;;15.22;65.87;100014.59;5589878;31;34331;-68